< Typhoon 198204 1982 Season Typhoon 198206 >
Typhoon 198205 (RUBY)
General InformationTrack Information on Google MapsDetailed Wind InformationList of All Images || Disaster Info.ResourceGoogle EarthGE AnimationAtom FeedGeoJSON
Detalied Best Track (Time Zone = UTC)
Year Month Day Hour Lat. Long. Pressure (hPa) Wind (kt) Class Image Chart
1982 6 20 00 9.5 140.1 1008 0 2 Image Chart
1982 6 20 06 9.7 139.8 1004 0 2 Image Chart
1982 6 20 12 9.8 139.5 1004 0 2 Image Chart
1982 6 20 18 9.8 139.2 1004 0 2 Image Chart
1982 6 21 00 9.5 139.2 1000 0 2 Image Chart
1982 6 21 06 9.3 139.7 1000 35 3 Image Chart
1982 6 21 12 9.4 140.4 1000 35 3 Image Chart
1982 6 21 18 9.9 141.4 1000 35 3 Image Chart
1982 6 22 00 11.1 142.2 1000 35 3 Image Chart
1982 6 22 06 12.5 142.8 1000 40 3 Image Chart
1982 6 22 12 13.3 142.9 998 40 3 Image Chart
1982 6 22 18 14.0 142.8 996 40 3 Image Chart
1982 6 23 00 14.7 142.6 996 45 3 Image Chart
1982 6 23 06 15.3 142.4 994 50 4 Image Chart
1982 6 23 12 16.0 142.3 992 50 4 Image Chart
1982 6 23 18 16.7 142.1 990 55 4 Image Chart
1982 6 24 00 17.4 141.8 990 60 4 Image Chart
1982 6 24 06 18.2 141.5 990 60 4 Image Chart
1982 6 24 12 19.2 141.1 990 60 4 Image Chart
1982 6 24 18 20.2 140.6 990 60 4 Image Chart
1982 6 25 00 21.3 140.0 985 60 4 Image Chart
1982 6 25 06 22.5 139.5 980 65 5 Image Chart
1982 6 25 12 23.9 139.3 975 65 5 Image Chart
1982 6 25 18 25.6 139.5 975 65 5 Image Chart
1982 6 26 00 27.3 140.0 975 70 5 Image Chart
1982 6 26 06 29.3 140.7 975 65 5 Image Chart
1982 6 26 12 31.7 141.7 975 60 4 Image Chart
1982 6 26 18 34.1 142.7 980 60 4 Image Chart
1982 6 27 00 36.6 143.5 980 60 4 Image Chart
1982 6 27 06 38.4 144.1 980 0 6 Image Chart
1982 6 27 12 40.0 145.0 982 0 6 Image Chart
1982 6 27 18 41.5 145.5 984 0 6 Image Chart
1982 6 28 00 43.0 145.0 986 0 6 Image Chart
1982 6 28 06 44.0 144.0 996 0 6 Image Chart
1982 6 28 12 44.5 144.0 1000 0 6 Image Chart
Japan Meteorological Agency Best Track Data | Correction Date : 1993-07-19
< Typhoon 198204 1982 Season Typhoon 198206 >

Help